createdAt,value
2023-08-29T00:00:52.562Z,92.80
2023-08-29T00:01:52.581Z,93.31
2023-08-29T00:02:52.589Z,93.41
2023-08-29T00:03:52.688Z,92.96
2023-08-29T00:04:52.528Z,93.71
2023-08-29T00:05:52.497Z,94.32
2023-08-29T00:06:52.495Z,94.12
2023-08-29T00:07:52.511Z,94.12
2023-08-29T00:08:52.473Z,94.53
2023-08-29T00:09:52.458Z,93.71
2023-08-29T00:10:52.443Z,93.41
2023-08-29T00:11:52.449Z,93.92
2023-08-29T00:12:52.434Z,93.71
2023-08-29T00:13:52.418Z,93.31
2023-08-29T00:14:52.405Z,92.70
2023-08-29T00:15:52.440Z,93.31
2023-08-29T00:16:52.397Z,93.15
2023-08-29T00:17:52.401Z,93.96
2023-08-29T00:18:52.382Z,93.86
2023-08-29T00:19:52.355Z,93.96
2023-08-29T00:20:52.340Z,93.76
2023-08-29T00:21:52.341Z,93.62
2023-08-29T00:22:52.319Z,93.96
2023-08-29T00:23:52.314Z,93.82
2023-08-29T00:24:52.302Z,94.12
2023-08-29T00:25:52.294Z,94.37
2023-08-29T00:26:52.285Z,93.96
2023-08-29T00:27:52.264Z,94.57
2023-08-29T00:28:52.258Z,95.59
2023-08-29T00:29:52.251Z,95.18
2023-08-29T00:30:52.233Z,94.88
2023-08-29T00:31:52.267Z,94.17
2023-08-29T00:32:52.296Z,93.96
2023-08-29T00:33:52.202Z,94.12
2023-08-29T00:34:52.188Z,94.37
2023-08-29T00:35:52.187Z,94.32
2023-08-29T00:36:52.183Z,95.08
2023-08-29T00:37:52.165Z,94.73
2023-08-29T00:38:52.158Z,95.49
2023-08-29T00:39:52.151Z,95.39
2023-08-29T00:40:52.131Z,95.59
2023-08-29T00:41:52.131Z,95.54
2023-08-29T00:42:52.113Z,94.78
2023-08-29T00:43:52.108Z,94.23
2023-08-29T00:44:52.089Z,94.43
2023-08-29T00:45:52.135Z,94.84
2023-08-29T00:46:52.079Z,94.93
2023-08-29T00:47:52.115Z,94.78
2023-08-29T00:48:52.050Z,94.73
2023-08-29T00:49:52.042Z,95.45
2023-08-29T00:50:52.039Z,95.85
2023-08-29T00:51:52.027Z,95.65
2023-08-29T00:52:52.021Z,94.63
2023-08-29T00:53:52.004Z,94.32
2023-08-29T00:54:51.985Z,94.23
2023-08-29T00:55:51.993Z,94.43
2023-08-29T00:56:51.970Z,94.02
2023-08-29T00:57:51.958Z,93.92
2023-08-29T00:58:51.951Z,93.71
2023-08-29T00:59:51.950Z,93.92
2023-08-29T01:00:51.927Z,93.41
2023-08-29T01:01:51.989Z,94.08
2023-08-29T01:02:51.952Z,94.28
2023-08-29T01:03:51.924Z,93.67
2023-08-29T01:04:51.894Z,93.37
2023-08-29T01:05:51.890Z,93.47
2023-08-29T01:06:51.865Z,94.23
2023-08-29T01:07:51.852Z,95.24
2023-08-29T01:08:51.844Z,95.50
2023-08-29T01:09:51.842Z,95.24
2023-08-29T01:10:51.823Z,95.30
2023-08-29T01:11:51.820Z,95.45
2023-08-29T01:12:51.797Z,95.65
2023-08-29T01:13:51.796Z,95.75
2023-08-29T01:14:51.798Z,95.85
2023-08-29T01:15:51.835Z,95.95
2023-08-29T01:16:51.757Z,95.34
2023-08-29T01:17:51.820Z,95.09
2023-08-29T01:18:51.743Z,95.70
2023-08-29T01:19:51.740Z,95.30
2023-08-29T01:20:51.726Z,95.34
2023-08-29T01:21:51.702Z,95.65
2023-08-29T01:22:57.450Z,95.14
2023-08-29T01:23:52.699Z,95.54
2023-08-29T01:24:51.679Z,95.65
2023-08-29T01:25:51.667Z,96.41
2023-08-29T01:26:51.651Z,96.51
2023-08-29T01:27:51.646Z,96.41
2023-08-29T01:28:51.651Z,96.41
2023-08-29T01:29:51.619Z,96.41
2023-08-29T01:30:51.618Z,96.41
2023-08-29T01:31:51.615Z,96.92
2023-08-29T01:32:51.628Z,96.41
2023-08-29T01:33:51.594Z,96.71
2023-08-29T01:34:51.567Z,96.66
2023-08-29T01:35:51.559Z,97.42
2023-08-29T01:36:51.545Z,97.63
2023-08-29T01:37:51.551Z,97.53
2023-08-29T01:38:51.531Z,96.61
2023-08-29T01:39:51.520Z,96.67
2023-08-29T01:40:51.498Z,96.26
2023-08-29T01:41:51.498Z,96.26
2023-08-29T01:42:51.493Z,96.15
2023-08-29T01:43:51.464Z,96.67
2023-08-29T01:44:51.520Z,96.36
2023-08-29T01:45:51.560Z,96.71
2023-08-29T01:46:51.448Z,96.26
2023-08-29T01:47:51.553Z,96.46
2023-08-29T01:48:51.427Z,95.85
2023-08-29T01:49:51.406Z,95.70
2023-08-29T01:50:51.440Z,95.34
2023-08-29T01:51:51.383Z,95.54
2023-08-29T01:52:51.384Z,94.53
2023-08-29T01:53:51.363Z,94.12
2023-08-29T01:54:51.357Z,93.71
2023-08-29T01:55:51.345Z,93.98
2023-08-29T01:56:51.349Z,94.38
2023-08-29T01:57:51.359Z,93.51
2023-08-29T01:58:51.318Z,93.47
2023-08-29T01:59:51.299Z,93.06
2023-08-29T02:00:51.320Z,93.06
2023-08-29T02:01:51.334Z,93.57
2023-08-29T02:02:51.314Z,93.37
2023-08-29T02:03:51.373Z,93.26
2023-08-29T02:04:51.282Z,92.96
2023-08-29T02:05:51.237Z,93.47
2023-08-29T02:06:51.247Z,92.96
2023-08-29T02:07:51.218Z,93.57
2023-08-29T02:08:51.211Z,92.96
2023-08-29T02:09:51.197Z,93.26
2023-08-29T02:10:51.193Z,93.57
2023-08-29T02:11:51.184Z,93.57
2023-08-29T02:12:51.170Z,93.47
2023-08-29T02:13:51.148Z,93.63
2023-08-29T02:14:51.150Z,93.43
2023-08-29T02:15:51.139Z,93.47
2023-08-29T02:16:51.139Z,93.06
2023-08-29T02:17:51.149Z,94.79
2023-08-29T02:18:51.097Z,95.09
2023-08-29T02:19:51.087Z,95.34
2023-08-29T02:20:51.096Z,95.09
2023-08-29T02:21:51.069Z,95.00
2023-08-29T02:22:51.075Z,95.81
2023-08-29T02:23:51.068Z,95.85
2023-08-29T02:24:51.036Z,95.65
2023-08-29T02:25:51.044Z,95.95
2023-08-29T02:26:51.034Z,96.26
2023-08-29T02:27:51.009Z,96.36
2023-08-29T02:28:50.995Z,96.36
2023-08-29T02:29:50.997Z,96.46
2023-08-29T02:30:51.037Z,96.56
2023-08-29T02:31:50.979Z,96.46
2023-08-29T02:32:50.984Z,96.26
2023-08-29T02:33:50.934Z,95.95
2023-08-29T02:34:50.958Z,95.30
2023-08-29T02:35:50.918Z,95.50
2023-08-29T02:36:50.907Z,95.20
2023-08-29T02:37:50.904Z,95.00
2023-08-29T02:38:50.889Z,95.30
2023-08-29T02:39:50.886Z,95.81
2023-08-29T02:40:50.864Z,96.01
2023-08-29T02:41:50.854Z,96.52
2023-08-29T02:42:50.850Z,96.42
2023-08-29T02:43:50.830Z,96.67
2023-08-29T02:44:50.836Z,96.72
2023-08-29T02:45:50.829Z,96.77
2023-08-29T02:46:50.850Z,96.72
2023-08-29T02:47:50.788Z,97.07
2023-08-29T02:48:50.796Z,96.62
2023-08-29T02:49:50.795Z,96.22
2023-08-29T02:50:50.762Z,96.22
2023-08-29T02:51:50.755Z,95.50
2023-08-29T02:52:50.739Z,95.81
2023-08-29T02:53:50.747Z,95.20
2023-08-29T02:54:50.719Z,95.15
2023-08-29T02:55:50.735Z,95.40
2023-08-29T02:56:50.692Z,95.61
2023-08-29T02:57:50.687Z,94.59
2023-08-29T02:58:50.684Z,95.00
2023-08-29T02:59:50.667Z,94.59
2023-08-29T03:00:50.698Z,94.59
2023-08-29T03:01:50.646Z,94.69
2023-08-29T03:02:50.668Z,94.08
2023-08-29T03:03:50.760Z,94.34
2023-08-29T03:04:50.617Z,94.34
2023-08-29T03:05:50.608Z,94.69
2023-08-29T03:06:50.609Z,94.69
2023-08-29T03:07:50.605Z,94.85
2023-08-29T03:08:50.586Z,95.20
2023-08-29T03:09:50.575Z,94.59
2023-08-29T03:10:50.548Z,94.28
2023-08-29T03:11:50.544Z,94.28
2023-08-29T03:12:50.545Z,94.08
2023-08-29T03:13:50.531Z,94.18
2023-08-29T03:14:50.509Z,94.28
2023-08-29T03:15:50.512Z,94.13
2023-08-29T03:16:50.554Z,94.38
2023-08-29T03:17:50.566Z,94.08
2023-08-29T03:18:50.469Z,94.08
2023-08-29T03:19:50.456Z,94.18
2023-08-29T03:20:50.453Z,94.34
2023-08-29T03:21:50.456Z,94.08
2023-08-29T03:22:50.446Z,93.87
2023-08-29T03:23:50.431Z,94.08
2023-08-29T03:24:50.417Z,94.48
2023-08-29T03:25:50.402Z,94.38
2023-08-29T03:26:50.405Z,94.34
2023-08-29T03:27:50.380Z,93.22
2023-08-29T03:28:50.371Z,94.48
2023-08-29T03:29:50.359Z,94.38
2023-08-29T03:30:50.381Z,94.59
2023-08-29T03:31:50.343Z,94.28
2023-08-29T03:32:50.477Z,94.28
2023-08-29T03:33:50.325Z,94.34
2023-08-29T03:34:50.302Z,93.63
2023-08-29T03:35:50.303Z,94.18
2023-08-29T03:36:50.295Z,94.04
2023-08-29T03:37:50.278Z,93.47
2023-08-29T03:38:50.257Z,94.54
2023-08-29T03:39:50.270Z,95.30
2023-08-29T03:40:50.244Z,95.81
2023-08-29T03:41:50.261Z,95.70
2023-08-29T03:42:50.211Z,95.81
2023-08-29T03:43:50.205Z,95.09
2023-08-29T03:44:50.190Z,95.20
2023-08-29T03:45:50.230Z,95.20
2023-08-29T03:46:50.170Z,95.20
2023-08-29T03:47:50.201Z,95.30
2023-08-29T03:48:50.151Z,94.69
2023-08-29T03:49:50.147Z,95.61
2023-08-29T03:50:50.144Z,95.00
2023-08-29T03:51:50.116Z,95.61
2023-08-29T03:52:50.106Z,94.69
2023-08-29T03:53:50.102Z,94.18
2023-08-29T03:54:50.086Z,94.28
2023-08-29T03:55:50.098Z,94.28
2023-08-29T03:56:50.108Z,94.28
2023-08-29T03:57:50.060Z,94.18
2023-08-29T03:58:50.041Z,93.87
2023-08-29T03:59:50.036Z,94.18
2023-08-29T04:00:50.037Z,95.00
2023-08-29T04:01:50.010Z,95.30
2023-08-29T04:02:50.078Z,95.50
2023-08-29T04:03:53.617Z,96.46
2023-08-29T04:04:50.044Z,96.36
2023-08-29T04:05:50.175Z,97.78
2023-08-29T04:06:49.967Z,97.58
2023-08-29T04:07:49.957Z,97.38
2023-08-29T04:08:49.934Z,97.48
2023-08-29T04:09:49.944Z,97.48
2023-08-29T04:10:49.929Z,97.58
2023-08-29T04:11:49.906Z,97.38
2023-08-29T04:12:49.891Z,97.38
2023-08-29T04:13:50.720Z,97.48
2023-08-29T04:14:49.883Z,97.48
2023-08-29T04:15:49.859Z,97.73
2023-08-29T04:16:49.879Z,97.48
2023-08-29T04:17:49.843Z,97.89
2023-08-29T04:18:50.528Z,97.78
2023-08-29T04:19:49.836Z,97.28
2023-08-29T04:20:49.805Z,97.58
2023-08-29T04:21:49.800Z,96.97
2023-08-29T04:22:49.785Z,96.31
2023-08-29T04:23:49.780Z,96.46
2023-08-29T04:24:49.772Z,96.83
2023-08-29T04:25:49.759Z,96.22
2023-08-29T04:26:49.746Z,96.62
2023-08-29T04:27:49.736Z,96.31
2023-08-29T04:28:50.144Z,96.01
2023-08-29T04:30:28.807Z,96.42
2023-08-29T04:30:50.405Z,95.09
2023-08-29T04:31:49.700Z,95.40
2023-08-29T04:32:49.725Z,95.40
2023-08-29T04:33:49.691Z,95.09
2023-08-29T04:34:49.671Z,95.50
2023-08-29T04:35:49.663Z,94.74
2023-08-29T04:36:49.636Z,95.00
2023-08-29T04:37:49.647Z,95.20
2023-08-29T04:38:49.629Z,94.59
2023-08-29T04:39:49.616Z,94.64
2023-08-29T04:40:49.596Z,94.13
2023-08-29T04:41:49.584Z,93.83
2023-08-29T04:42:49.570Z,94.79
2023-08-29T04:43:49.595Z,95.05
2023-08-29T04:44:49.553Z,94.64
2023-08-29T04:45:49.607Z,94.24
2023-08-29T04:46:49.532Z,94.28
2023-08-29T04:47:49.547Z,94.24
2023-08-29T04:48:49.520Z,94.28
2023-08-29T04:49:49.503Z,94.24
2023-08-29T04:50:49.501Z,94.04
2023-08-29T04:51:49.476Z,94.64
2023-08-29T04:52:49.482Z,94.44
2023-08-29T04:53:49.462Z,94.64
2023-08-29T04:54:49.445Z,94.64
2023-08-29T04:55:49.447Z,94.95
2023-08-29T04:56:49.432Z,94.74
2023-08-29T04:57:49.425Z,94.64
2023-08-29T04:58:49.410Z,95.36
2023-08-29T04:59:49.395Z,95.05
2023-08-29T05:00:50.234Z,95.86
2023-08-29T05:01:51.032Z,95.66
2023-08-29T05:02:49.422Z,95.56
2023-08-29T05:03:49.392Z,95.46
2023-08-29T05:04:49.368Z,95.97
2023-08-29T05:05:49.335Z,96.47
2023-08-29T05:06:49.330Z,95.86
2023-08-29T05:07:49.317Z,96.17
2023-08-29T05:08:49.288Z,96.17
2023-08-29T05:09:49.289Z,96.27
2023-08-29T05:10:49.287Z,96.88
2023-08-29T05:11:49.279Z,96.78
2023-08-29T05:12:49.261Z,96.27
2023-08-29T05:13:49.238Z,96.88
2023-08-29T05:14:49.253Z,97.23
2023-08-29T05:15:49.252Z,97.44
2023-08-29T05:17:28.492Z,97.29
2023-08-29T05:17:49.238Z,97.44
2023-08-29T05:18:49.187Z,97.13
2023-08-29T05:19:49.182Z,97.53
2023-08-29T05:20:49.293Z,97.49
2023-08-29T05:21:49.171Z,97.49
2023-08-29T05:22:49.142Z,96.98
2023-08-29T05:23:49.136Z,96.68
2023-08-29T05:24:49.119Z,96.17
2023-08-29T05:25:49.123Z,96.07
2023-08-29T05:26:49.127Z,95.62
2023-08-29T05:27:49.098Z,95.51
2023-08-29T05:28:49.084Z,95.21
2023-08-29T05:29:49.077Z,95.10
2023-08-29T05:30:49.072Z,95.10
2023-08-29T05:31:49.080Z,94.90
2023-08-29T05:32:49.098Z,95.31
2023-08-29T05:33:49.042Z,95.41
2023-08-29T05:34:49.021Z,94.90
2023-08-29T05:35:49.022Z,94.80
2023-08-29T05:36:49.021Z,95.51
2023-08-29T05:37:49.813Z,94.90
2023-08-29T05:38:49.017Z,95.92
2023-08-29T05:39:48.985Z,95.82
2023-08-29T05:40:48.977Z,95.72
2023-08-29T05:41:48.945Z,95.72
2023-08-29T05:42:48.963Z,95.92
2023-08-29T05:43:48.927Z,95.21
2023-08-29T05:44:48.942Z,96.12
2023-08-29T05:45:48.906Z,96.43
2023-08-29T05:46:48.914Z,96.37
2023-08-29T05:47:48.934Z,96.83
2023-08-29T05:48:48.873Z,96.63
2023-08-29T05:49:48.879Z,96.33
2023-08-29T05:50:48.857Z,96.78
2023-08-29T05:51:50.188Z,97.29
2023-08-29T05:52:48.885Z,97.44
2023-08-29T05:53:48.862Z,97.24
2023-08-29T05:54:48.823Z,96.43
2023-08-29T05:55:48.799Z,95.92
2023-08-29T05:56:48.790Z,95.78
2023-08-29T05:57:48.782Z,96.33
2023-08-29T05:58:48.818Z,95.37
2023-08-29T05:59:48.757Z,95.47
2023-08-29T06:00:48.781Z,95.67
2023-08-29T06:01:48.735Z,95.47
2023-08-29T06:02:48.739Z,95.12
2023-08-29T06:03:48.792Z,95.02
2023-08-29T06:04:48.706Z,95.02
2023-08-29T06:05:48.699Z,94.92
2023-08-29T06:06:48.680Z,94.31
2023-08-29T06:07:48.896Z,93.90
2023-08-29T06:08:48.676Z,93.90
2023-08-29T06:09:48.651Z,94.31
2023-08-29T06:10:48.639Z,93.70
2023-08-29T06:11:48.630Z,94.00
2023-08-29T06:12:48.643Z,94.31
2023-08-29T06:13:48.624Z,93.86
2023-08-29T06:14:48.597Z,94.10
2023-08-29T06:15:48.601Z,94.17
2023-08-29T06:16:48.702Z,93.86
2023-08-29T06:17:48.615Z,92.74
2023-08-29T06:18:48.579Z,92.94
2023-08-29T06:19:48.558Z,92.94
2023-08-29T06:20:48.550Z,92.89
2023-08-29T06:21:48.519Z,93.05
2023-08-29T06:22:48.515Z,93.35
2023-08-29T06:23:48.578Z,94.00
2023-08-29T06:24:48.491Z,94.10
2023-08-29T06:25:48.487Z,93.90
2023-08-29T06:26:48.489Z,93.80
2023-08-29T06:27:48.476Z,94.82
2023-08-29T06:28:48.464Z,94.51
2023-08-29T06:29:48.467Z,95.42
2023-08-29T06:30:48.459Z,95.12
2023-08-29T06:31:48.439Z,95.22
2023-08-29T06:32:48.470Z,95.32
2023-08-29T06:33:48.392Z,94.51
2023-08-29T06:34:48.382Z,94.61
2023-08-29T06:35:48.370Z,94.61
2023-08-29T06:36:48.397Z,95.22
2023-08-29T06:37:48.349Z,95.22
2023-08-29T06:38:48.344Z,95.28
2023-08-29T06:39:48.325Z,94.87
2023-08-29T06:40:48.328Z,95.18
2023-08-29T06:41:48.318Z,94.77
2023-08-29T06:42:48.287Z,95.18
2023-08-29T06:43:48.297Z,95.38
2023-08-29T06:44:48.286Z,94.06
2023-08-29T06:45:48.271Z,94.06
2023-08-29T06:46:48.277Z,93.65
2023-08-29T06:47:48.257Z,94.06
2023-08-29T06:48:48.232Z,94.57
2023-08-29T06:49:48.230Z,94.22
2023-08-29T06:50:48.234Z,93.76
2023-08-29T06:51:48.200Z,93.96
2023-08-29T06:52:48.248Z,93.86
2023-08-29T06:53:48.189Z,94.17
2023-08-29T06:54:48.177Z,93.86
2023-08-29T06:55:48.206Z,93.86
2023-08-29T06:56:48.159Z,94.06
2023-08-29T06:57:48.162Z,93.96
2023-08-29T06:58:48.131Z,94.06
2023-08-29T06:59:48.129Z,94.17
2023-08-29T07:00:48.182Z,94.12
2023-08-29T07:01:48.095Z,93.21
2023-08-29T07:02:48.203Z,93.71
2023-08-29T07:03:48.155Z,93.61
2023-08-29T07:04:48.109Z,93.06
2023-08-29T07:05:48.075Z,92.76
2023-08-29T07:06:48.134Z,93.06
2023-08-29T07:07:48.079Z,92.82
2023-08-29T07:08:48.027Z,92.31
2023-08-29T07:09:48.086Z,92.82
2023-08-29T07:10:48.030Z,92.67
2023-08-29T07:11:48.003Z,91.96
2023-08-29T07:12:47.994Z,92.21
2023-08-29T07:13:48.000Z,91.55
2023-08-29T07:14:48.061Z,91.50
2023-08-29T07:15:47.957Z,92.36
2023-08-29T07:16:53.710Z,92.06
2023-08-29T07:17:48.956Z,91.55
2023-08-29T07:18:47.932Z,91.66
2023-08-29T07:19:47.919Z,91.86
2023-08-29T07:20:47.895Z,91.35
2023-08-29T07:21:47.883Z,91.35
2023-08-29T07:22:47.886Z,91.86
2023-08-29T07:23:47.900Z,91.61
2023-08-29T07:24:47.863Z,91.00
2023-08-29T07:25:47.889Z,90.20
2023-08-29T07:26:47.829Z,89.59
2023-08-29T07:27:47.831Z,89.59
2023-08-29T07:28:47.824Z,88.98
2023-08-29T07:29:47.825Z,89.48
2023-08-29T07:30:47.874Z,88.37
2023-08-29T07:31:47.792Z,88.68
2023-08-29T07:32:47.824Z,89.18
2023-08-29T07:33:47.774Z,89.08
2023-08-29T07:34:47.780Z,89.69
2023-08-29T07:35:47.752Z,90.40
2023-08-29T07:36:47.762Z,89.18
2023-08-29T07:37:47.748Z,90.40
2023-08-29T13:48:59.102Z,61.49
2023-08-29T13:49:39.748Z,59.06
2023-08-29T13:50:38.944Z,61.33
2023-08-29T13:51:38.027Z,59.14
2023-08-29T13:53:12.193Z,58.84
2023-08-29T13:53:37.886Z,59.23
2023-08-29T13:54:37.945Z,58.91
2023-08-29T13:55:37.870Z,54.03
2023-08-29T13:56:37.864Z,57.71
2023-08-29T13:57:37.855Z,57.42
2023-08-29T13:58:37.833Z,57.79
2023-08-29T13:59:37.855Z,56.87
2023-08-29T14:00:37.816Z,55.77
2023-08-29T14:01:37.883Z,57.04
2023-08-29T14:02:37.929Z,54.75
2023-08-29T14:03:39.413Z,54.06
2023-08-29T14:04:37.787Z,55.20
2023-08-29T14:05:37.770Z,55.90
2023-08-29T14:06:37.796Z,55.63
2023-08-29T14:07:37.749Z,57.82
2023-08-29T14:08:37.744Z,54.26
2023-08-29T14:09:37.731Z,54.58
2023-08-29T14:10:37.714Z,54.88
2023-08-29T14:11:37.732Z,59.17
2023-08-29T14:12:37.684Z,59.11
2023-08-29T14:13:37.693Z,57.89
2023-08-29T14:14:37.713Z,59.05
2023-08-29T14:15:37.697Z,54.48
2023-08-29T14:16:37.692Z,54.48
2023-08-29T14:17:37.665Z,54.71
2023-08-29T14:18:37.652Z,54.46
2023-08-29T14:19:37.669Z,56.38
2023-08-29T14:20:37.637Z,55.91
2023-08-29T14:21:37.645Z,56.16
2023-08-29T14:22:37.655Z,57.09
2023-08-29T14:23:37.591Z,58.88
2023-08-29T14:24:37.586Z,58.68
2023-08-29T14:25:37.598Z,57.71
2023-08-29T14:26:37.554Z,58.73
2023-08-29T14:27:40.115Z,59.83
2023-08-29T14:28:37.549Z,59.51
2023-08-29T14:29:37.550Z,59.70
2023-08-29T14:30:37.526Z,59.31
2023-08-29T14:31:37.588Z,57.91
2023-08-29T14:32:37.532Z,59.58
2023-08-29T14:33:37.482Z,57.78
2023-08-29T14:34:37.489Z,57.28
2023-08-29T14:35:37.475Z,57.48
2023-08-29T14:36:37.482Z,59.35
2023-08-29T14:37:37.527Z,57.26
2023-08-29T14:38:37.444Z,59.52
2023-08-29T14:39:37.512Z,59.30
2023-08-29T14:40:37.416Z,58.37
2023-08-29T14:41:37.416Z,57.67
2023-08-29T14:42:37.428Z,57.75
2023-08-29T14:43:37.389Z,56.95
2023-08-29T14:44:37.481Z,54.16
2023-08-29T14:45:37.368Z,56.85
2023-08-29T14:46:37.390Z,58.14
2023-08-29T14:47:37.423Z,55.63
2023-08-29T14:48:37.404Z,56.02
2023-08-29T14:49:37.360Z,55.63
2023-08-29T14:50:37.338Z,56.23
2023-08-29T14:51:37.399Z,54.83
2023-08-29T14:52:37.322Z,56.82
2023-08-29T14:53:37.313Z,54.73
2023-08-29T14:54:37.304Z,52.91
2023-08-29T14:55:37.290Z,53.14
2023-08-29T14:56:37.302Z,55.13
2023-08-29T14:57:37.289Z,56.12
2023-08-29T14:58:37.293Z,55.73
2023-08-29T14:59:37.287Z,56.20
2023-08-29T15:00:37.266Z,55.43
2023-08-29T15:01:37.260Z,56.12
2023-08-29T15:02:37.359Z,58.09
2023-08-29T15:03:37.262Z,55.82
2023-08-29T15:04:37.198Z,55.35
2023-08-29T15:05:37.183Z,54.41
2023-08-29T15:06:37.169Z,55.63
2023-08-29T15:07:37.166Z,55.43
2023-08-29T15:08:37.146Z,58.92
2023-08-29T15:09:37.132Z,57.95
2023-08-29T15:10:37.157Z,57.15
2023-08-29T15:11:37.126Z,57.39
2023-08-29T15:12:37.120Z,58.55
2023-08-29T15:13:37.421Z,59.55
2023-08-29T15:14:37.109Z,56.26
2023-08-29T15:15:37.167Z,58.62
2023-08-29T15:16:37.115Z,58.53
2023-08-29T15:17:37.225Z,57.65
2023-08-29T15:18:37.044Z,57.95
2023-08-29T15:19:37.041Z,58.08
2023-08-29T15:20:37.025Z,58.18
2023-08-29T15:21:37.044Z,58.98
2023-08-29T15:22:37.012Z,61.38
2023-08-29T15:23:37.019Z,60.50
2023-08-29T15:24:36.988Z,60.88
2023-08-29T15:25:36.972Z,59.61
2023-08-29T15:26:36.985Z,60.83
2023-08-29T15:27:36.950Z,60.93
2023-08-29T15:28:36.946Z,61.83
2023-08-29T15:29:36.938Z,62.13
2023-08-29T15:30:36.928Z,62.53
2023-08-29T15:31:36.933Z,62.23
2023-08-29T15:32:36.949Z,62.83
2023-08-29T15:33:36.889Z,62.16
2023-08-29T15:34:36.890Z,62.37
2023-08-29T15:35:36.892Z,61.46
2023-08-29T15:36:36.891Z,61.09
2023-08-29T15:37:36.854Z,62.70
2023-08-29T15:38:36.846Z,64.12
2023-08-29T15:39:36.834Z,62.92
2023-08-29T15:40:36.840Z,62.72
2023-08-29T15:41:36.841Z,64.52
2023-08-29T15:42:36.830Z,64.75
2023-08-29T15:43:36.789Z,64.95
2023-08-29T15:44:36.796Z,64.32
2023-08-29T15:45:36.784Z,64.36
2023-08-29T15:46:36.805Z,63.95
2023-08-29T15:47:36.816Z,64.55
2023-08-29T15:48:36.759Z,66.05
2023-08-29T15:49:36.729Z,64.75
2023-08-29T15:50:36.737Z,66.36
2023-08-29T15:51:36.726Z,63.98
2023-08-29T15:52:36.703Z,63.85
2023-08-29T15:53:36.694Z,65.19
2023-08-29T15:54:36.709Z,65.69
2023-08-29T15:55:36.693Z,66.49
2023-08-29T15:56:36.677Z,66.09
2023-08-29T15:57:36.658Z,66.09
2023-08-29T15:58:36.676Z,66.39
2023-08-29T15:59:36.673Z,66.89
2023-08-29T16:00:36.642Z,67.49
2023-08-29T16:01:36.679Z,67.49
2023-08-29T16:02:36.643Z,67.39
2023-08-29T16:03:36.748Z,67.39
2023-08-29T16:04:36.618Z,68.32
2023-08-29T16:05:36.577Z,68.89
2023-08-29T16:06:36.646Z,68.42
2023-08-29T16:07:36.559Z,69.12
2023-08-29T16:08:36.565Z,71.96
2023-08-29T16:09:36.547Z,73.07
2023-08-29T16:10:36.530Z,72.60
2023-08-29T16:11:36.509Z,72.66
2023-08-29T16:12:36.597Z,71.70
2023-08-29T16:13:36.516Z,71.30
2023-08-29T16:14:36.510Z,70.56
2023-08-29T16:15:36.482Z,71.30
2023-08-29T16:16:36.504Z,70.66
2023-08-29T16:17:36.462Z,71.30
2023-08-29T16:18:36.468Z,71.16
2023-08-29T16:19:36.441Z,70.96
2023-08-29T16:20:36.433Z,69.96
2023-08-29T16:21:36.432Z,68.35
2023-08-29T16:22:36.444Z,69.89
2023-08-29T16:23:36.431Z,70.59
2023-08-29T16:24:36.398Z,67.55
2023-08-29T16:25:36.385Z,63.57
2023-08-29T16:26:36.386Z,64.18
2023-08-29T16:27:36.409Z,66.25
2023-08-29T16:28:36.359Z,66.95
2023-08-29T16:29:36.350Z,67.42
2023-08-29T16:30:36.383Z,67.82
2023-08-29T16:31:36.331Z,64.65
2023-08-29T16:32:36.394Z,66.85
2023-08-29T16:33:36.347Z,66.42
2023-08-29T16:34:36.301Z,66.62
2023-08-29T16:35:36.298Z,67.32
2023-08-29T16:36:37.485Z,66.72
2023-08-29T16:37:37.467Z,65.62
2023-08-29T16:38:37.424Z,65.01
2023-08-29T16:39:37.456Z,66.19
2023-08-29T16:40:37.424Z,65.19
2023-08-29T16:41:37.421Z,64.62
2023-08-29T16:42:37.411Z,64.98
2023-08-29T16:43:37.401Z,66.32
2023-08-29T16:44:37.386Z,64.81
2023-08-29T16:45:37.365Z,66.78
2023-08-29T16:46:37.434Z,67.02
2023-08-29T16:47:38.395Z,65.39
2023-08-29T16:48:37.358Z,65.19
2023-08-29T16:49:37.346Z,65.12
2023-08-29T16:50:37.352Z,65.89
2023-08-29T16:51:37.335Z,63.58
2023-08-29T16:52:37.377Z,64.69
2023-08-29T16:53:37.284Z,65.09
2023-08-29T16:54:37.302Z,64.48
2023-08-29T16:55:37.287Z,65.48
2023-08-29T16:56:37.307Z,64.78
2023-08-29T16:57:37.302Z,64.59
2023-08-29T16:58:37.248Z,64.78
2023-08-29T16:59:37.220Z,64.98
2023-08-29T17:00:37.274Z,64.89
2023-08-29T17:01:37.245Z,63.89
2023-08-29T17:02:37.337Z,64.69
2023-08-29T17:03:37.286Z,65.19
2023-08-29T17:04:37.202Z,65.19
2023-08-29T17:05:37.198Z,66.19
2023-08-29T17:06:37.238Z,65.39
2023-08-29T17:07:37.163Z,64.92
2023-08-29T17:08:37.152Z,66.82
2023-08-29T17:09:37.148Z,67.22
2023-08-29T17:10:37.168Z,65.35
2023-08-29T17:11:37.120Z,68.08
2023-08-29T17:12:37.109Z,68.39
2023-08-29T17:13:37.083Z,69.99
2023-08-29T17:14:37.095Z,69.49
2023-08-29T17:15:37.060Z,68.35
2023-08-29T17:16:37.110Z,68.15
2023-08-29T17:17:37.062Z,67.45
2023-08-29T17:18:37.018Z,67.15
2023-08-29T17:19:37.050Z,67.29
2023-08-29T17:20:37.022Z,68.49
2023-08-29T17:21:37.007Z,68.29
2023-08-29T17:22:37.010Z,68.12
2023-08-29T17:23:36.975Z,69.42
2023-08-29T17:24:36.982Z,70.73
2023-08-29T17:25:36.949Z,69.12
2023-08-29T17:26:36.941Z,67.32
2023-08-29T17:27:36.965Z,68.32
2023-08-29T17:28:37.316Z,69.35
2023-08-29T17:29:36.959Z,69.46
2023-08-29T17:30:36.898Z,70.26
2023-08-29T17:31:36.933Z,69.15
2023-08-29T17:32:36.884Z,70.39
2023-08-29T17:33:36.893Z,69.96
2023-08-29T17:34:36.862Z,69.76
2023-08-29T17:35:36.863Z,68.59
2023-08-29T17:36:36.864Z,68.29
2023-08-29T17:37:36.825Z,69.89
2023-08-29T17:38:36.846Z,70.63
2023-08-29T17:39:36.840Z,71.23
2023-08-29T17:40:36.834Z,70.63
2023-08-29T17:41:36.801Z,71.23
2023-08-29T17:42:36.798Z,71.33
2023-08-29T17:43:36.780Z,72.33
2023-08-29T17:44:36.785Z,72.57
2023-08-29T17:45:36.819Z,73.38
2023-08-29T17:46:36.765Z,73.07
2023-08-29T17:47:36.794Z,73.51
2023-08-29T17:48:36.741Z,73.51
2023-08-29T17:49:36.716Z,72.41
2023-08-29T17:50:36.711Z,72.34
2023-08-29T17:51:36.726Z,71.53
2023-08-29T17:52:36.753Z,72.54
2023-08-29T17:53:36.711Z,71.43
2023-08-29T17:54:36.675Z,72.14
2023-08-29T17:55:36.671Z,73.35
2023-08-29T17:56:36.690Z,72.97
2023-08-29T17:57:36.664Z,72.47
2023-08-29T17:58:36.656Z,72.07
2023-08-29T17:59:36.653Z,72.77
2023-08-29T18:00:36.659Z,73.04
2023-08-29T18:01:36.706Z,73.48
2023-08-29T18:02:36.725Z,74.02
2023-08-29T18:03:36.703Z,73.78
2023-08-29T18:04:36.649Z,74.62
2023-08-29T18:05:36.625Z,74.73
2023-08-29T18:06:36.575Z,75.43
2023-08-29T18:07:36.577Z,75.83
2023-08-29T18:08:36.550Z,76.47
2023-08-29T18:09:36.557Z,76.47
2023-08-29T18:10:36.550Z,77.17
2023-08-29T18:11:36.528Z,77.08
2023-08-29T18:12:36.555Z,77.17
2023-08-29T18:13:36.523Z,78.12
2023-08-29T18:14:36.482Z,78.92
2023-08-29T18:15:36.476Z,79.57
2023-08-29T18:16:36.471Z,79.67
2023-08-29T18:17:36.519Z,80.38
2023-08-29T18:18:36.429Z,81.12
2023-08-29T18:19:36.457Z,81.02
2023-08-29T18:20:36.426Z,80.85
2023-08-29T18:21:36.411Z,79.85
2023-08-29T18:22:36.382Z,80.39
2023-08-29T18:23:36.407Z,80.90
2023-08-29T18:24:36.414Z,80.99
2023-08-29T18:25:36.412Z,80.29
2023-08-29T18:26:36.394Z,80.29
2023-08-29T18:27:36.375Z,80.08
2023-08-29T18:28:36.371Z,80.08
2023-08-29T18:29:36.400Z,80.99
2023-08-29T18:30:36.374Z,81.10
2023-08-29T18:31:36.339Z,80.99
2023-08-29T18:32:36.364Z,81.30
2023-08-29T18:33:36.298Z,83.05
2023-08-29T18:34:36.312Z,82.55
2023-08-29T18:35:36.291Z,81.54
2023-08-29T18:36:38.266Z,83.46
2023-08-29T18:37:36.269Z,84.51
2023-08-29T18:38:36.254Z,84.11
2023-08-29T18:39:36.297Z,83.90
2023-08-29T18:40:36.241Z,84.34
2023-08-29T18:41:36.242Z,83.74
2023-08-29T18:42:36.242Z,83.44
2023-08-29T18:43:36.220Z,84.65
2023-08-29T18:44:36.239Z,84.45
2023-08-29T18:45:36.207Z,85.16
2023-08-29T18:46:36.183Z,85.60
2023-08-29T18:47:36.222Z,85.46
2023-08-29T18:48:36.177Z,85.80
2023-08-29T18:49:36.159Z,86.00
2023-08-29T18:50:36.147Z,85.64
2023-08-29T18:51:36.123Z,86.00
2023-08-29T18:52:36.186Z,85.60
2023-08-29T18:53:36.122Z,86.05
2023-08-29T18:54:36.119Z,85.74
2023-08-29T18:55:36.097Z,85.78
2023-08-29T18:56:36.111Z,86.25
2023-08-29T18:57:36.109Z,86.45
2023-08-29T18:58:37.662Z,86.35
2023-08-29T18:59:36.059Z,87.26
2023-08-29T19:00:36.104Z,87.91
2023-08-29T19:01:36.039Z,87.51
2023-08-29T19:02:36.061Z,87.60